sensor_id;sensor_type;location;lat;lon;timestamp;temperature;humidity
68924;DHT22;55961;52.156;20.942;2022-12-08T00:01:52;0.70;77.20
68924;DHT22;55961;52.156;20.942;2022-12-08T00:04:18;0.70;77.00
68924;DHT22;55961;52.156;20.942;2022-12-08T00:06:44;0.70;76.90
68924;DHT22;55961;52.156;20.942;2022-12-08T00:09:35;0.70;77.40
68924;DHT22;55961;52.156;20.942;2022-12-08T00:12:04;0.70;77.80
68924;DHT22;55961;52.156;20.942;2022-12-08T00:14:36;0.70;78.30
68924;DHT22;55961;52.156;20.942;2022-12-08T00:17:02;0.70;78.40
68924;DHT22;55961;52.156;20.942;2022-12-08T00:19:29;0.70;77.90
68924;DHT22;55961;52.156;20.942;2022-12-08T00:21:56;0.70;77.70
68924;DHT22;55961;52.156;20.942;2022-12-08T00:24:23;0.70;77.70
68924;DHT22;55961;52.156;20.942;2022-12-08T00:26:49;0.60;77.60
68924;DHT22;55961;52.156;20.942;2022-12-08T00:29:16;0.60;77.40
68924;DHT22;55961;52.156;20.942;2022-12-08T00:31:42;0.60;77.20
68924;DHT22;55961;52.156;20.942;2022-12-08T00:34:08;0.60;77.00
68924;DHT22;55961;52.156;20.942;2022-12-08T00:36:33;0.50;76.80
68924;DHT22;55961;52.156;20.942;2022-12-08T00:39:00;0.50;76.70
68924;DHT22;55961;52.156;20.942;2022-12-08T00:41:26;0.50;76.80
68924;DHT22;55961;52.156;20.942;2022-12-08T00:44:13;0.50;76.70
68924;DHT22;55961;52.156;20.942;2022-12-08T00:46:40;0.50;76.70
68924;DHT22;55961;52.156;20.942;2022-12-08T00:49:06;0.50;76.50
68924;DHT22;55961;52.156;20.942;2022-12-08T00:51:32;0.50;76.50
68924;DHT22;55961;52.156;20.942;2022-12-08T00:53:58;0.40;76.60
68924;DHT22;55961;52.156;20.942;2022-12-08T00:56:25;0.40;76.60
68924;DHT22;55961;52.156;20.942;2022-12-08T00:58:51;0.40;76.50
68924;DHT22;55961;52.156;20.942;2022-12-08T01:01:17;0.30;76.70
68924;DHT22;55961;52.156;20.942;2022-12-08T01:03:43;0.30;76.70
68924;DHT22;55961;52.156;20.942;2022-12-08T01:06:09;0.30;76.80
68924;DHT22;55961;52.156;20.942;2022-12-08T01:08:37;0.30;77.00
68924;DHT22;55961;52.156;20.942;2022-12-08T01:11:03;0.20;77.00
68924;DHT22;55961;52.156;20.942;2022-12-08T01:13:29;0.20;77.10
68924;DHT22;55961;52.156;20.942;2022-12-08T01:15:55;0.20;77.30
68924;DHT22;55961;52.156;20.942;2022-12-08T01:18:21;0.20;77.30
68924;DHT22;55961;52.156;20.942;2022-12-08T01:20:47;0.10;77.50
68924;DHT22;55961;52.156;20.942;2022-12-08T01:23:13;0.10;77.60
68924;DHT22;55961;52.156;20.942;2022-12-08T01:25:38;0.10;77.60
68924;DHT22;55961;52.156;20.942;2022-12-08T01:28:04;0.10;77.80
68924;DHT22;55961;52.156;20.942;2022-12-08T01:30:30;0.00;77.90
68924;DHT22;55961;52.156;20.942;2022-12-08T01:32:56;0.00;78.00
68924;DHT22;55961;52.156;20.942;2022-12-08T01:35:22;0.00;77.90
68924;DHT22;55961;52.156;20.942;2022-12-08T01:37:49;0.00;78.00
68924;DHT22;55961;52.156;20.942;2022-12-08T01:40:16;0.00;78.10
68924;DHT22;55961;52.156;20.942;2022-12-08T01:42:42;-0.10;78.30
68924;DHT22;55961;52.156;20.942;2022-12-08T01:45:28;-0.10;78.30
68924;DHT22;55961;52.156;20.942;2022-12-08T01:48:02;0.00;78.10
68924;DHT22;55961;52.156;20.942;2022-12-08T01:50:29;-0.10;78.20
68924;DHT22;55961;52.156;20.942;2022-12-08T01:53:03;-0.10;78.30
68924;DHT22;55961;52.156;20.942;2022-12-08T01:55:39;0.00;78.20
68924;DHT22;55961;52.156;20.942;2022-12-08T01:58:29;0.00;77.80
68924;DHT22;55961;52.156;20.942;2022-12-08T02:00:56;0.00;77.80
68924;DHT22;55961;52.156;20.942;2022-12-08T02:03:56;0.00;77.70
68924;DHT22;55961;52.156;20.942;2022-12-08T02:06:23;0.00;77.70
68924;DHT22;55961;52.156;20.942;2022-12-08T02:08:49;0.00;77.60
68924;DHT22;55961;52.156;20.942;2022-12-08T02:11:16;-0.10;77.40
68924;DHT22;55961;52.156;20.942;2022-12-08T02:13:44;-0.10;77.40
68924;DHT22;55961;52.156;20.942;2022-12-08T02:21:43;-0.10;77.30
68924;DHT22;55961;52.156;20.942;2022-12-08T02:24:27;-0.10;77.20
68924;DHT22;55961;52.156;20.942;2022-12-08T02:43:41;-0.10;77.40
68924;DHT22;55961;52.156;20.942;2022-12-08T02:46:12;-0.10;77.50
68924;DHT22;55961;52.156;20.942;2022-12-08T02:48:39;-0.20;77.70
68924;DHT22;55961;52.156;20.942;2022-12-08T02:51:06;-0.20;77.80
68924;DHT22;55961;52.156;20.942;2022-12-08T02:53:33;-0.20;77.80
68924;DHT22;55961;52.156;20.942;2022-12-08T02:59:10;-0.20;77.70
68924;DHT22;55961;52.156;20.942;2022-12-08T03:07:23;-0.20;77.70
68924;DHT22;55961;52.156;20.942;2022-12-08T03:13:05;-0.20;77.50
68924;DHT22;55961;52.156;20.942;2022-12-08T03:15:34;-0.20;77.40
68924;DHT22;55961;52.156;20.942;2022-12-08T03:18:03;-0.20;77.30
68924;DHT22;55961;52.156;20.942;2022-12-08T03:20:30;-0.30;77.40
68924;DHT22;55961;52.156;20.942;2022-12-08T03:22:59;-0.30;77.40
68924;DHT22;55961;52.156;20.942;2022-12-08T03:25:29;-0.30;77.50
68924;DHT22;55961;52.156;20.942;2022-12-08T03:27:56;-0.30;77.40
68924;DHT22;55961;52.156;20.942;2022-12-08T03:30:22;-0.30;77.40
68924;DHT22;55961;52.156;20.942;2022-12-08T03:35:23;-0.30;77.60
68924;DHT22;55961;52.156;20.942;2022-12-08T03:37:51;-0.30;77.80
68924;DHT22;55961;52.156;20.942;2022-12-08T03:40:19;-0.30;77.90
68924;DHT22;55961;52.156;20.942;2022-12-08T03:42:45;-0.30;77.90
68924;DHT22;55961;52.156;20.942;2022-12-08T03:45:10;-0.30;77.90
68924;DHT22;55961;52.156;20.942;2022-12-08T03:47:37;-0.30;77.90
68924;DHT22;55961;52.156;20.942;2022-12-08T03:50:03;-0.30;78.00
68924;DHT22;55961;52.156;20.942;2022-12-08T03:52:29;-0.40;78.10
68924;DHT22;55961;52.156;20.942;2022-12-08T03:54:55;-0.40;78.20
68924;DHT22;55961;52.156;20.942;2022-12-08T03:57:21;-0.40;78.30
68924;DHT22;55961;52.156;20.942;2022-12-08T03:59:47;-0.40;78.20
68924;DHT22;55961;52.156;20.942;2022-12-08T04:02:13;-0.40;78.20
68924;DHT22;55961;52.156;20.942;2022-12-08T04:04:39;-0.40;78.20
68924;DHT22;55961;52.156;20.942;2022-12-08T04:07:05;-0.40;78.20
68924;DHT22;55961;52.156;20.942;2022-12-08T04:09:30;-0.40;78.50
68924;DHT22;55961;52.156;20.942;2022-12-08T04:11:56;-0.40;78.20
68924;DHT22;55961;52.156;20.942;2022-12-08T04:14:22;-0.40;78.40
68924;DHT22;55961;52.156;20.942;2022-12-08T04:16:48;-0.40;78.40
68924;DHT22;55961;52.156;20.942;2022-12-08T04:19:14;-0.40;78.50
68924;DHT22;55961;52.156;20.942;2022-12-08T04:21:40;-0.40;78.60
68924;DHT22;55961;52.156;20.942;2022-12-08T04:24:06;-0.40;78.70
68924;DHT22;55961;52.156;20.942;2022-12-08T04:26:32;-0.40;78.70
68924;DHT22;55961;52.156;20.942;2022-12-08T04:28:58;-0.40;78.80
68924;DHT22;55961;52.156;20.942;2022-12-08T04:31:24;-0.30;78.90
68924;DHT22;55961;52.156;20.942;2022-12-08T04:33:50;-0.40;79.00
68924;DHT22;55961;52.156;20.942;2022-12-08T04:36:16;-0.30;79.00
68924;DHT22;55961;52.156;20.942;2022-12-08T04:38:41;-0.30;78.80
68924;DHT22;55961;52.156;20.942;2022-12-08T04:41:07;-0.20;78.40
68924;DHT22;55961;52.156;20.942;2022-12-08T04:43:34;-0.20;78.40
68924;DHT22;55961;52.156;20.942;2022-12-08T04:46:00;-0.20;78.50
68924;DHT22;55961;52.156;20.942;2022-12-08T04:48:26;-0.20;78.40
68924;DHT22;55961;52.156;20.942;2022-12-08T04:50:52;-0.10;78.20
68924;DHT22;55961;52.156;20.942;2022-12-08T04:53:18;-0.10;77.70
68924;DHT22;55961;52.156;20.942;2022-12-08T04:55:44;-0.10;77.30
68924;DHT22;55961;52.156;20.942;2022-12-08T04:58:17;-0.10;77.30
68924;DHT22;55961;52.156;20.942;2022-12-08T05:00:44;-0.10;77.30
68924;DHT22;55961;52.156;20.942;2022-12-08T05:03:10;-0.10;77.50
68924;DHT22;55961;52.156;20.942;2022-12-08T05:05:36;-0.10;77.60
68924;DHT22;55961;52.156;20.942;2022-12-08T05:08:03;-0.10;77.70
68924;DHT22;55961;52.156;20.942;2022-12-08T05:10:30;-0.20;77.80
68924;DHT22;55961;52.156;20.942;2022-12-08T05:12:57;-0.10;77.80
68924;DHT22;55961;52.156;20.942;2022-12-08T05:15:23;-0.20;77.80
68924;DHT22;55961;52.156;20.942;2022-12-08T05:17:49;-0.20;77.80
68924;DHT22;55961;52.156;20.942;2022-12-08T05:20:15;-0.20;77.90
68924;DHT22;55961;52.156;20.942;2022-12-08T05:22:41;-0.20;78.00
68924;DHT22;55961;52.156;20.942;2022-12-08T05:25:08;-0.20;78.00
68924;DHT22;55961;52.156;20.942;2022-12-08T05:27:34;-0.20;77.90
68924;DHT22;55961;52.156;20.942;2022-12-08T05:30:00;-0.20;77.90
68924;DHT22;55961;52.156;20.942;2022-12-08T05:32:26;-0.30;78.00
68924;DHT22;55961;52.156;20.942;2022-12-08T05:34:52;-0.30;78.10
68924;DHT22;55961;52.156;20.942;2022-12-08T05:37:18;-0.30;78.10
68924;DHT22;55961;52.156;20.942;2022-12-08T05:39:44;-0.30;78.00
68924;DHT22;55961;52.156;20.942;2022-12-08T05:42:10;-0.30;78.10
68924;DHT22;55961;52.156;20.942;2022-12-08T05:44:36;-0.30;78.10
68924;DHT22;55961;52.156;20.942;2022-12-08T05:47:01;-0.30;78.20
68924;DHT22;55961;52.156;20.942;2022-12-08T05:49:27;-0.20;78.20
68924;DHT22;55961;52.156;20.942;2022-12-08T05:51:53;-0.30;78.40
68924;DHT22;55961;52.156;20.942;2022-12-08T05:54:19;-0.30;78.50
68924;DHT22;55961;52.156;20.942;2022-12-08T05:56:45;-0.30;78.60
68924;DHT22;55961;52.156;20.942;2022-12-08T05:59:11;-0.20;78.70
68924;DHT22;55961;52.156;20.942;2022-12-08T06:01:36;-0.20;78.70
68924;DHT22;55961;52.156;20.942;2022-12-08T06:04:04;-0.20;78.70
68924;DHT22;55961;52.156;20.942;2022-12-08T06:06:30;-0.20;78.80
68924;DHT22;55961;52.156;20.942;2022-12-08T06:08:56;-0.20;78.90
68924;DHT22;55961;52.156;20.942;2022-12-08T06:11:27;-0.20;79.10
68924;DHT22;55961;52.156;20.942;2022-12-08T06:13:54;-0.20;79.00
68924;DHT22;55961;52.156;20.942;2022-12-08T06:16:21;-0.20;78.90
68924;DHT22;55961;52.156;20.942;2022-12-08T06:18:48;-0.20;78.80
68924;DHT22;55961;52.156;20.942;2022-12-08T06:21:15;-0.10;78.90
68924;DHT22;55961;52.156;20.942;2022-12-08T06:23:42;-0.10;79.00
68924;DHT22;55961;52.156;20.942;2022-12-08T06:26:12;-0.10;79.10
68924;DHT22;55961;52.156;20.942;2022-12-08T06:28:39;-0.10;79.10
68924;DHT22;55961;52.156;20.942;2022-12-08T06:31:08;-0.10;78.90
68924;DHT22;55961;52.156;20.942;2022-12-08T06:33:34;-0.10;78.90
68924;DHT22;55961;52.156;20.942;2022-12-08T06:36:00;-0.10;78.90
68924;DHT22;55961;52.156;20.942;2022-12-08T06:38:26;-0.10;79.00
68924;DHT22;55961;52.156;20.942;2022-12-08T06:40:56;-0.10;79.00
68924;DHT22;55961;52.156;20.942;2022-12-08T06:43:23;-0.10;79.00
68924;DHT22;55961;52.156;20.942;2022-12-08T06:45:49;-0.20;78.90
68924;DHT22;55961;52.156;20.942;2022-12-08T06:48:16;-0.10;79.40
68924;DHT22;55961;52.156;20.942;2022-12-08T06:50:42;-0.10;79.00
68924;DHT22;55961;52.156;20.942;2022-12-08T06:53:11;-0.10;78.70
68924;DHT22;55961;52.156;20.942;2022-12-08T06:55:42;-0.10;78.60
68924;DHT22;55961;52.156;20.942;2022-12-08T06:58:08;-0.20;78.60
68924;DHT22;55961;52.156;20.942;2022-12-08T07:00:34;-0.20;78.50
68924;DHT22;55961;52.156;20.942;2022-12-08T07:03:00;-0.30;78.60
68924;DHT22;55961;52.156;20.942;2022-12-08T07:05:25;-0.30;78.70
68924;DHT22;55961;52.156;20.942;2022-12-08T07:07:51;-0.30;78.70
68924;DHT22;55961;52.156;20.942;2022-12-08T07:10:17;-0.30;78.80
68924;DHT22;55961;52.156;20.942;2022-12-08T07:12:44;-0.40;78.80
68924;DHT22;55961;52.156;20.942;2022-12-08T07:15:10;-0.40;78.80
68924;DHT22;55961;52.156;20.942;2022-12-08T07:17:36;-0.40;78.80
68924;DHT22;55961;52.156;20.942;2022-12-08T07:20:02;-0.40;79.00
68924;DHT22;55961;52.156;20.942;2022-12-08T07:22:28;-0.40;79.00
68924;DHT22;55961;52.156;20.942;2022-12-08T07:24:54;-0.40;79.10
68924;DHT22;55961;52.156;20.942;2022-12-08T07:27:20;-0.40;79.10
68924;DHT22;55961;52.156;20.942;2022-12-08T07:29:45;-0.50;79.20
68924;DHT22;55961;52.156;20.942;2022-12-08T07:32:11;-0.50;79.30
68924;DHT22;55961;52.156;20.942;2022-12-08T07:34:37;-0.50;79.50
68924;DHT22;55961;52.156;20.942;2022-12-08T07:37:03;-0.50;79.40
68924;DHT22;55961;52.156;20.942;2022-12-08T07:39:29;-0.50;79.40
68924;DHT22;55961;52.156;20.942;2022-12-08T07:41:55;-0.50;79.40
68924;DHT22;55961;52.156;20.942;2022-12-08T07:44:21;-0.50;79.60
68924;DHT22;55961;52.156;20.942;2022-12-08T07:46:47;-0.50;79.40
68924;DHT22;55961;52.156;20.942;2022-12-08T07:49:12;-0.50;79.40
68924;DHT22;55961;52.156;20.942;2022-12-08T07:51:38;-0.50;79.50
68924;DHT22;55961;52.156;20.942;2022-12-08T07:54:04;-0.50;79.40
68924;DHT22;55961;52.156;20.942;2022-12-08T07:56:30;-0.40;79.20
68924;DHT22;55961;52.156;20.942;2022-12-08T07:58:56;-0.40;79.20
68924;DHT22;55961;52.156;20.942;2022-12-08T08:01:26;-0.40;79.20
68924;DHT22;55961;52.156;20.942;2022-12-08T08:03:54;-0.40;79.10
68924;DHT22;55961;52.156;20.942;2022-12-08T08:06:20;-0.40;79.30
68924;DHT22;55961;52.156;20.942;2022-12-08T08:08:45;-0.40;79.10
68924;DHT22;55961;52.156;20.942;2022-12-08T08:11:12;-0.40;79.00
68924;DHT22;55961;52.156;20.942;2022-12-08T08:13:38;-0.30;78.80
68924;DHT22;55961;52.156;20.942;2022-12-08T08:16:05;-0.30;78.80
68924;DHT22;55961;52.156;20.942;2022-12-08T08:18:32;-0.30;78.80
68924;DHT22;55961;52.156;20.942;2022-12-08T08:20:58;-0.30;78.80
68924;DHT22;55961;52.156;20.942;2022-12-08T08:23:24;-0.20;78.70
68924;DHT22;55961;52.156;20.942;2022-12-08T08:25:50;-0.20;78.40
68924;DHT22;55961;52.156;20.942;2022-12-08T08:28:16;-0.20;78.20
68924;DHT22;55961;52.156;20.942;2022-12-08T08:30:42;-0.10;78.10
68924;DHT22;55961;52.156;20.942;2022-12-08T08:33:09;-0.10;77.80
68924;DHT22;55961;52.156;20.942;2022-12-08T08:35:35;0.00;77.40
68924;DHT22;55961;52.156;20.942;2022-12-08T08:38:01;0.00;77.30
68924;DHT22;55961;52.156;20.942;2022-12-08T08:40:27;0.00;77.80
68924;DHT22;55961;52.156;20.942;2022-12-08T08:42:53;0.00;78.20
68924;DHT22;55961;52.156;20.942;2022-12-08T08:45:19;0.00;78.40
68924;DHT22;55961;52.156;20.942;2022-12-08T08:47:44;0.00;78.50
68924;DHT22;55961;52.156;20.942;2022-12-08T08:50:11;0.00;78.50
68924;DHT22;55961;52.156;20.942;2022-12-08T08:52:37;0.00;78.60
68924;DHT22;55961;52.156;20.942;2022-12-08T08:55:03;0.00;78.70
68924;DHT22;55961;52.156;20.942;2022-12-08T08:57:29;0.10;78.80
68924;DHT22;55961;52.156;20.942;2022-12-08T08:59:55;0.10;78.70
68924;DHT22;55961;52.156;20.942;2022-12-08T09:02:21;0.10;78.70
68924;DHT22;55961;52.156;20.942;2022-12-08T09:04:47;0.10;78.90
68924;DHT22;55961;52.156;20.942;2022-12-08T09:07:15;0.10;79.00
68924;DHT22;55961;52.156;20.942;2022-12-08T09:09:42;0.20;78.90
68924;DHT22;55961;52.156;20.942;2022-12-08T09:12:09;0.20;79.00
68924;DHT22;55961;52.156;20.942;2022-12-08T09:14:35;0.30;79.00
68924;DHT22;55961;52.156;20.942;2022-12-08T09:17:00;0.40;78.90
68924;DHT22;55961;52.156;20.942;2022-12-08T09:19:27;0.50;78.90
68924;DHT22;55961;52.156;20.942;2022-12-08T09:21:52;0.50;79.00
68924;DHT22;55961;52.156;20.942;2022-12-08T09:24:18;0.60;79.10
68924;DHT22;55961;52.156;20.942;2022-12-08T09:26:44;0.60;79.30
68924;DHT22;55961;52.156;20.942;2022-12-08T09:29:12;0.70;78.90
68924;DHT22;55961;52.156;20.942;2022-12-08T09:31:39;0.80;79.00
68924;DHT22;55961;52.156;20.942;2022-12-08T09:34:05;0.80;78.50
68924;DHT22;55961;52.156;20.942;2022-12-08T09:36:31;0.90;78.60
68924;DHT22;55961;52.156;20.942;2022-12-08T09:38:57;1.00;78.20
68924;DHT22;55961;52.156;20.942;2022-12-08T09:41:36;1.00;78.20
68924;DHT22;55961;52.156;20.942;2022-12-08T09:46:41;1.10;77.70
68924;DHT22;55961;52.156;20.942;2022-12-08T09:49:14;1.20;77.70
68924;DHT22;55961;52.156;20.942;2022-12-08T09:51:41;1.20;77.50
68924;DHT22;55961;52.156;20.942;2022-12-08T09:54:19;1.20;77.90
68924;DHT22;55961;52.156;20.942;2022-12-08T09:56:47;1.30;77.70
68924;DHT22;55961;52.156;20.942;2022-12-08T09:59:26;1.30;77.60
68924;DHT22;55961;52.156;20.942;2022-12-08T10:01:54;1.30;77.70
68924;DHT22;55961;52.156;20.942;2022-12-08T10:09:35;1.40;78.20
68924;DHT22;55961;52.156;20.942;2022-12-08T10:12:17;1.40;78.20
68924;DHT22;55961;52.156;20.942;2022-12-08T10:14:50;1.40;78.40
68924;DHT22;55961;52.156;20.942;2022-12-08T10:20:17;1.50;78.80
68924;DHT22;55961;52.156;20.942;2022-12-08T10:22:46;1.50;78.80
68924;DHT22;55961;52.156;20.942;2022-12-08T10:25:23;1.50;78.80
68924;DHT22;55961;52.156;20.942;2022-12-08T10:27:53;1.50;78.80
68924;DHT22;55961;52.156;20.942;2022-12-08T10:30:21;1.50;78.90
68924;DHT22;55961;52.156;20.942;2022-12-08T10:32:52;1.60;79.00
68924;DHT22;55961;52.156;20.942;2022-12-08T10:35:22;1.50;78.70
68924;DHT22;55961;52.156;20.942;2022-12-08T10:37:56;1.50;79.10
68924;DHT22;55961;52.156;20.942;2022-12-08T10:40:25;1.60;79.30
68924;DHT22;55961;52.156;20.942;2022-12-08T10:42:55;1.60;79.30
68924;DHT22;55961;52.156;20.942;2022-12-08T10:48:00;1.60;79.40
68924;DHT22;55961;52.156;20.942;2022-12-08T10:50:57;1.60;79.40
68924;DHT22;55961;52.156;20.942;2022-12-08T10:53:31;1.70;79.40
68924;DHT22;55961;52.156;20.942;2022-12-08T10:58:39;1.70;79.30
68924;DHT22;55961;52.156;20.942;2022-12-08T11:01:12;1.70;79.30
68924;DHT22;55961;52.156;20.942;2022-12-08T11:06:29;1.70;79.70
68924;DHT22;55961;52.156;20.942;2022-12-08T11:09:03;1.70;79.70
68924;DHT22;55961;52.156;20.942;2022-12-08T11:11:57;1.80;79.70
68924;DHT22;55961;52.156;20.942;2022-12-08T11:17:14;1.80;80.20
68924;DHT22;55961;52.156;20.942;2022-12-08T11:22:36;1.90;80.00
68924;DHT22;55961;52.156;20.942;2022-12-08T11:27:43;2.00;80.70
68924;DHT22;55961;52.156;20.942;2022-12-08T11:32:42;2.30;80.20
68924;DHT22;55961;52.156;20.942;2022-12-08T11:35:18;2.40;79.90
68924;DHT22;55961;52.156;20.942;2022-12-08T11:37:45;2.50;79.20
68924;DHT22;55961;52.156;20.942;2022-12-08T11:40:28;2.60;78.70
68924;DHT22;55961;52.156;20.942;2022-12-08T11:46:15;2.60;78.00
68924;DHT22;55961;52.156;20.942;2022-12-08T11:49:03;2.60;77.60
68924;DHT22;55961;52.156;20.942;2022-12-08T11:57:00;2.40;77.90
68924;DHT22;55961;52.156;20.942;2022-12-08T11:59:43;2.30;78.10
68924;DHT22;55961;52.156;20.942;2022-12-08T12:02:21;2.30;78.30
68924;DHT22;55961;52.156;20.942;2022-12-08T12:04:49;2.20;78.60
68924;DHT22;55961;52.156;20.942;2022-12-08T12:18:18;1.90;79.90
68924;DHT22;55961;52.156;20.942;2022-12-08T12:21:15;1.90;80.10
68924;DHT22;55961;52.156;20.942;2022-12-08T12:24:00;1.80;80.30
68924;DHT22;55961;52.156;20.942;2022-12-08T12:26:49;1.80;80.50
68924;DHT22;55961;52.156;20.942;2022-12-08T12:29:20;1.80;80.60
68924;DHT22;55961;52.156;20.942;2022-12-08T12:31:55;1.80;80.80
68924;DHT22;55961;52.156;20.942;2022-12-08T12:34:51;1.70;81.00
68924;DHT22;55961;52.156;20.942;2022-12-08T12:39:59;1.70;81.30
68924;DHT22;55961;52.156;20.942;2022-12-08T13:04:02;1.80;81.80
68924;DHT22;55961;52.156;20.942;2022-12-08T13:06:41;1.80;81.70
68924;DHT22;55961;52.156;20.942;2022-12-08T13:09:23;1.80;81.80
68924;DHT22;55961;52.156;20.942;2022-12-08T13:11:57;1.80;81.80
68924;DHT22;55961;52.156;20.942;2022-12-08T13:14:29;1.80;82.00
68924;DHT22;55961;52.156;20.942;2022-12-08T13:16:57;1.80;82.00
68924;DHT22;55961;52.156;20.942;2022-12-08T13:19:31;1.80;82.00
68924;DHT22;55961;52.156;20.942;2022-12-08T13:21:57;1.80;82.00
68924;DHT22;55961;52.156;20.942;2022-12-08T13:29:29;1.80;82.10
68924;DHT22;55961;52.156;20.942;2022-12-08T13:31:56;1.80;82.10
68924;DHT22;55961;52.156;20.942;2022-12-08T13:34:42;1.80;82.20
68924;DHT22;55961;52.156;20.942;2022-12-08T13:44:58;1.80;82.40
68924;DHT22;55961;52.156;20.942;2022-12-08T13:47:33;1.80;82.40
68924;DHT22;55961;52.156;20.942;2022-12-08T13:50:04;1.80;82.50
68924;DHT22;55961;52.156;20.942;2022-12-08T13:52:37;1.80;82.50
68924;DHT22;55961;52.156;20.942;2022-12-08T13:55:14;1.70;82.50
68924;DHT22;55961;52.156;20.942;2022-12-08T13:57:42;1.70;82.60
68924;DHT22;55961;52.156;20.942;2022-12-08T14:00:17;1.70;82.50
68924;DHT22;55961;52.156;20.942;2022-12-08T14:02:54;1.70;82.60
68924;DHT22;55961;52.156;20.942;2022-12-08T14:05:22;1.70;82.60
68924;DHT22;55961;52.156;20.942;2022-12-08T14:07:53;1.70;82.60
68924;DHT22;55961;52.156;20.942;2022-12-08T14:10:26;1.70;82.70
68924;DHT22;55961;52.156;20.942;2022-12-08T14:12:56;1.70;82.80
68924;DHT22;55961;52.156;20.942;2022-12-08T14:15:24;1.70;82.80
68924;DHT22;55961;52.156;20.942;2022-12-08T14:17:56;1.70;82.90
68924;DHT22;55961;52.156;20.942;2022-12-08T14:20:28;1.60;83.00
68924;DHT22;55961;52.156;20.942;2022-12-08T14:22:55;1.70;83.10
68924;DHT22;55961;52.156;20.942;2022-12-08T14:25:23;1.60;83.10
68924;DHT22;55961;52.156;20.942;2022-12-08T14:27:57;1.60;83.20
68924;DHT22;55961;52.156;20.942;2022-12-08T14:32:57;1.60;83.40
68924;DHT22;55961;52.156;20.942;2022-12-08T14:35:34;1.60;83.30
68924;DHT22;55961;52.156;20.942;2022-12-08T14:40:42;1.60;83.40
68924;DHT22;55961;52.156;20.942;2022-12-08T14:56:32;1.50;83.40
68924;DHT22;55961;52.156;20.942;2022-12-08T15:01:40;1.50;83.40
68924;DHT22;55961;52.156;20.942;2022-12-08T15:04:18;1.50;83.50
68924;DHT22;55961;52.156;20.942;2022-12-08T15:07:01;1.50;83.50
68924;DHT22;55961;52.156;20.942;2022-12-08T15:09:40;1.50;83.50
68924;DHT22;55961;52.156;20.942;2022-12-08T15:17:40;1.40;83.70
68924;DHT22;55961;52.156;20.942;2022-12-08T15:20:39;1.40;83.70
68924;DHT22;55961;52.156;20.942;2022-12-08T15:23:19;1.40;83.70
68924;DHT22;55961;52.156;20.942;2022-12-08T15:25:46;1.40;83.70
68924;DHT22;55961;52.156;20.942;2022-12-08T15:28:13;1.40;83.70
68924;DHT22;55961;52.156;20.942;2022-12-08T15:30:40;1.40;83.70
68924;DHT22;55961;52.156;20.942;2022-12-08T15:33:06;1.40;83.70
68924;DHT22;55961;52.156;20.942;2022-12-08T15:35:31;1.40;83.80
68924;DHT22;55961;52.156;20.942;2022-12-08T15:37:57;1.40;83.80
68924;DHT22;55961;52.156;20.942;2022-12-08T15:40:23;1.30;83.90
68924;DHT22;55961;52.156;20.942;2022-12-08T15:42:52;1.40;83.80
68924;DHT22;55961;52.156;20.942;2022-12-08T15:45:29;1.30;83.80
68924;DHT22;55961;52.156;20.942;2022-12-08T15:47:56;1.30;83.70
68924;DHT22;55961;52.156;20.942;2022-12-08T15:50:22;1.40;83.70
68924;DHT22;55961;52.156;20.942;2022-12-08T15:52:49;1.30;83.70
68924;DHT22;55961;52.156;20.942;2022-12-08T15:55:19;1.30;83.70
68924;DHT22;55961;52.156;20.942;2022-12-08T15:57:50;1.30;83.80
68924;DHT22;55961;52.156;20.942;2022-12-08T16:02:53;1.30;83.80
68924;DHT22;55961;52.156;20.942;2022-12-08T16:05:26;1.30;83.80
68924;DHT22;55961;52.156;20.942;2022-12-08T16:08:12;1.30;83.80
68924;DHT22;55961;52.156;20.942;2022-12-08T16:10:39;1.20;83.90
68924;DHT22;55961;52.156;20.942;2022-12-08T16:13:15;1.20;83.90
68924;DHT22;55961;52.156;20.942;2022-12-08T16:16:01;1.20;83.90
68924;DHT22;55961;52.156;20.942;2022-12-08T16:18:32;1.20;84.00
68924;DHT22;55961;52.156;20.942;2022-12-08T16:20:59;1.20;84.00
68924;DHT22;55961;52.156;20.942;2022-12-08T16:23:26;1.20;84.10
68924;DHT22;55961;52.156;20.942;2022-12-08T16:25:51;1.20;84.20
68924;DHT22;55961;52.156;20.942;2022-12-08T16:28:18;1.20;84.20
68924;DHT22;55961;52.156;20.942;2022-12-08T16:30:43;1.30;84.20
68924;DHT22;55961;52.156;20.942;2022-12-08T16:33:11;1.30;84.10
68924;DHT22;55961;52.156;20.942;2022-12-08T16:35:37;1.30;84.10
68924;DHT22;55961;52.156;20.942;2022-12-08T16:38:03;1.30;84.00
68924;DHT22;55961;52.156;20.942;2022-12-08T16:40:29;1.30;83.90
68924;DHT22;55961;52.156;20.942;2022-12-08T16:42:55;1.30;83.80
68924;DHT22;55961;52.156;20.942;2022-12-08T16:45:27;1.40;83.70
68924;DHT22;55961;52.156;20.942;2022-12-08T16:47:58;1.40;83.60
68924;DHT22;55961;52.156;20.942;2022-12-08T16:50:27;1.30;83.50
68924;DHT22;55961;52.156;20.942;2022-12-08T16:53:05;1.30;83.50
68924;DHT22;55961;52.156;20.942;2022-12-08T16:55:32;1.40;83.50
68924;DHT22;55961;52.156;20.942;2022-12-08T16:57:58;1.40;83.30
68924;DHT22;55961;52.156;20.942;2022-12-08T17:00:26;1.40;83.30
68924;DHT22;55961;52.156;20.942;2022-12-08T17:02:53;1.40;83.10
68924;DHT22;55961;52.156;20.942;2022-12-08T17:05:21;1.40;83.10
68924;DHT22;55961;52.156;20.942;2022-12-08T17:07:49;1.40;83.00
68924;DHT22;55961;52.156;20.942;2022-12-08T17:10:18;1.40;82.90
68924;DHT22;55961;52.156;20.942;2022-12-08T17:12:45;1.40;82.80
68924;DHT22;55961;52.156;20.942;2022-12-08T17:15:14;1.40;82.80
68924;DHT22;55961;52.156;20.942;2022-12-08T17:17:40;1.40;82.70
68924;DHT22;55961;52.156;20.942;2022-12-08T17:20:11;1.50;82.70
68924;DHT22;55961;52.156;20.942;2022-12-08T17:22:40;1.50;82.70
68924;DHT22;55961;52.156;20.942;2022-12-08T17:25:06;1.50;82.60
68924;DHT22;55961;52.156;20.942;2022-12-08T17:27:32;1.50;82.60
68924;DHT22;55961;52.156;20.942;2022-12-08T17:29:58;1.50;82.50
68924;DHT22;55961;52.156;20.942;2022-12-08T17:32:24;1.50;82.40
68924;DHT22;55961;52.156;20.942;2022-12-08T17:34:50;1.50;82.40
68924;DHT22;55961;52.156;20.942;2022-12-08T17:37:17;1.50;82.40
68924;DHT22;55961;52.156;20.942;2022-12-08T17:39:43;1.50;82.30
68924;DHT22;55961;52.156;20.942;2022-12-08T17:42:09;1.50;82.20
68924;DHT22;55961;52.156;20.942;2022-12-08T17:44:35;1.50;82.00
68924;DHT22;55961;52.156;20.942;2022-12-08T17:47:02;1.50;82.00
68924;DHT22;55961;52.156;20.942;2022-12-08T17:49:29;1.60;81.80
68924;DHT22;55961;52.156;20.942;2022-12-08T17:51:58;1.60;81.50
68924;DHT22;55961;52.156;20.942;2022-12-08T17:54:25;1.60;81.40
68924;DHT22;55961;52.156;20.942;2022-12-08T17:56:51;1.60;81.20
68924;DHT22;55961;52.156;20.942;2022-12-08T17:59:17;1.60;81.20
68924;DHT22;55961;52.156;20.942;2022-12-08T18:01:44;1.60;81.00
68924;DHT22;55961;52.156;20.942;2022-12-08T18:04:10;1.60;80.90
68924;DHT22;55961;52.156;20.942;2022-12-08T18:06:37;1.60;80.70
68924;DHT22;55961;52.156;20.942;2022-12-08T18:09:05;1.60;80.60